Time;durP1;ratioP1;P1;durP2;ratioP2;P2;SDS_P1;SDS_P2;PMS_P1;PMS_P2;Temp;Humidity;BMP_temperature;BMP_pressure;BME280_temperature;BME280_humidity;BME280_pressure;Samples;Min_cycle;Max_cycle;Signal;HPM_P1;HPM_P2
2022/01/31 00:01:35;;;;;;;10.43;3.40;;;;;;;8.39;52.44;101509.44;4987481;28;123831;-76
2022/01/31 00:04:02;;;;;;;9.35;3.45;;;;;;;8.39;52.42;101480.41;4986474;28;118577;-76
2022/01/31 00:06:29;;;;;;;11.05;3.50;;;;;;;8.43;52.26;101469.81;4970254;28;119063;-76
2022/01/31 00:08:57;;;;;;;12.00;3.45;;;;;;;8.44;52.73;101459.22;4986200;28;125040;-76
2022/01/31 00:11:25;;;;;;;9.05;3.10;;;;;;;8.46;52.80;101448.63;4985814;28;123025;-75
2022/01/31 00:14:03;;;;;;;9.48;3.20;;;;;;;8.47;52.60;101423.94;4985893;28;119854;-76
2022/01/31 00:16:32;;;;;;;14.80;4.03;;;;;;;8.49;52.57;101408.91;4984777;28;120758;-76
2022/01/31 00:19:00;;;;;;;7.95;3.75;;;;;;;8.48;52.59;101413.34;4986184;28;123103;-75
2022/01/31 00:21:28;;;;;;;14.18;3.88;;;;;;;8.50;52.58;101400.09;4986245;28;123570;-76
2022/01/31 00:23:55;;;;;;;8.63;3.30;;;;;;;8.50;52.36;101389.56;4985892;28;118562;-77
2022/01/31 00:26:22;;;;;;;12.48;3.30;;;;;;;8.52;52.75;101398.28;4970138;28;116785;-77
2022/01/31 00:28:50;;;;;;;12.95;3.67;;;;;;;8.52;52.55;101387.72;4970646;28;123193;-77
2022/01/31 00:31:17;;;;;;;10.40;3.75;;;;;;;8.54;52.59;101370.06;4986827;28;123477;-77
2022/01/31 00:33:44;;;;;;;8.98;3.22;;;;;;;8.55;52.37;101366.50;4970495;28;118200;-76
2022/01/31 00:36:11;;;;;;;12.98;3.58;;;;;;;8.55;52.40;101361.22;4988056;28;119548;-77
2022/01/31 00:38:39;;;;;;;14.88;3.72;;;;;;;8.56;52.42;101336.56;4984704;28;122519;-76
2022/01/31 00:41:06;;;;;;;10.35;3.38;;;;;;;8.57;52.44;101312.78;4986028;28;124344;-77
2022/01/31 00:43:35;;;;;;;18.45;3.53;;;;;;;8.58;52.79;101313.63;4970026;28;118666;-76
2022/01/31 00:46:10;;;;;;;8.88;3.25;;;;;;;8.59;52.67;101304.81;4989692;28;118723;-76
2022/01/31 00:48:45;;;;;;;12.10;3.37;;;;;;;8.58;52.70;101274.88;4990849;28;124682;-76
2022/01/31 00:51:12;;;;;;;11.73;3.47;;;;;;;8.59;52.60;101267.84;4990585;28;123919;-75
2022/01/31 00:53:40;;;;;;;9.55;3.42;;;;;;;8.61;52.78;101249.28;4989979;28;118572;-76
2022/01/31 00:56:07;;;;;;;13.00;3.58;;;;;;;8.62;52.78;101241.34;4990132;28;118112;-77
2022/01/31 00:58:39;;;;;;;11.30;4.03;;;;;;;8.63;52.82;101239.59;4995404;28;122467;-76
2022/01/31 01:01:06;;;;;;;12.70;3.38;;;;;;;8.64;53.04;101218.38;4995138;28;121819;-76
2022/01/31 01:03:33;;;;;;;11.00;3.55;;;;;;;8.64;52.96;101210.47;4993394;28;118857;-76
2022/01/31 01:06:04;;;;;;;10.85;3.45;;;;;;;8.64;53.35;101202.53;4994312;28;118595;-76
2022/01/31 01:08:31;;;;;;;10.63;3.47;;;;;;;8.64;52.99;101191.97;4995376;28;122152;-75
2022/01/31 01:10:58;;;;;;;10.98;3.40;;;;;;;8.63;53.32;101190.28;4999520;28;123194;-75
2022/01/31 01:13:25;;;;;;;10.10;3.50;;;;;;;8.60;53.61;101179.78;4997445;28;118122;-76
2022/01/31 01:15:52;;;;;;;14.65;4.22;;;;;;;8.59;53.70;101172.81;4997153;28;118084;-77
2022/01/31 01:18:19;;;;;;;9.93;3.22;;;;;;;8.56;53.31;101167.59;4996095;28;124459;-76
2022/01/31 01:20:47;;;;;;;11.68;3.65;;;;;;;8.52;53.43;101155.44;4981065;28;124094;-76
2022/01/31 01:23:14;;;;;;;17.35;3.67;;;;;;;8.50;53.85;101146.69;5000808;28;117117;-77
2022/01/31 01:25:42;;;;;;;13.25;3.45;;;;;;;8.49;53.96;101145.81;5002871;28;120131;-77
2022/01/31 01:28:10;;;;;;;10.05;3.05;;;;;;;8.48;53.92;101137.97;4998221;28;125636;-76
2022/01/31 01:30:37;;;;;;;13.73;3.85;;;;;;;8.46;54.39;101129.22;5000494;28;123055;-76
2022/01/31 01:33:18;;;;;;;11.52;3.60;;;;;;;8.45;54.12;101127.50;4984154;28;117507;-76
2022/01/31 01:35:50;;;;;;;9.15;3.38;;;;;;;8.42;54.28;101106.47;4997827;28;117723;-75
2022/01/31 01:38:19;;;;;;;10.27;3.28;;;;;;;8.41;54.63;101094.16;4997208;28;125021;-75
2022/01/31 01:40:47;;;;;;;8.98;3.40;;;;;;;8.37;54.33;101088.09;4983909;28;122008;-76
2022/01/31 01:43:17;;;;;;;10.52;3.28;;;;;;;8.35;54.64;101068.81;4985548;28;118130;-77
2022/01/31 01:45:44;;;;;;;10.55;3.78;;;;;;;8.33;54.82;101055.69;5001868;28;118379;-76
2022/01/31 01:48:15;;;;;;;15.02;3.70;;;;;;;8.32;54.89;101038.09;5000018;28;123532;-77
2022/01/31 01:50:42;;;;;;;12.38;3.92;;;;;;;8.31;54.85;101046.94;5001231;28;123294;-75
2022/01/31 01:53:12;;;;;;;10.45;3.30;;;;;;;8.30;55.09;101049.63;5001618;28;119622;-77
2022/01/31 01:55:40;;;;;;;9.60;3.55;;;;;;;8.28;55.13;101025.94;4999960;28;120243;-77
2022/01/31 01:58:15;;;;;;;11.25;3.85;;;;;;;8.26;55.63;101017.19;4994072;28;122776;-77
2022/01/31 02:00:51;;;;;;;10.82;3.15;;;;;;;8.26;55.44;101027.75;4995315;28;123211;-77
2022/01/31 02:03:35;;;;;;;8.77;3.40;;;;;;;8.24;55.27;101016.38;4999699;28;118707;-76
2022/01/31 02:06:03;;;;;;;9.25;3.35;;;;;;;8.23;55.16;101001.50;4992118;28;117932;-76
2022/01/31 02:08:40;;;;;;;10.60;3.72;;;;;;;8.23;55.87;101001.50;4989114;28;123583;-77
2022/01/31 02:11:12;;;;;;;11.25;3.35;;;;;;;8.23;55.77;100990.94;4988862;28;123582;-77
2022/01/31 02:13:43;;;;;;;8.77;3.08;;;;;;;8.23;55.50;100959.28;4973162;28;118534;-77
2022/01/31 02:16:10;;;;;;;6.93;3.47;;;;;;;8.24;55.82;100960.13;4990177;28;118841;-77
2022/01/31 02:18:51;;;;;;;8.60;3.25;;;;;;;8.24;55.44;100939.88;4987487;28;123480;-77
2022/01/31 02:21:42;;;;;;;11.50;2.53;;;;;;;8.24;56.04;100929.31;4979900;28;125534;-77
2022/01/31 02:24:30;;;;;;;5.32;3.20;;;;;;;8.24;55.92;100924.03;4989484;28;120035;-76
2022/01/31 02:27:23;;;;;;;10.48;3.70;;;;;;;8.25;56.28;100925.78;4992443;28;119562;-77
2022/01/31 02:29:51;;;;;;;10.48;3.13;;;;;;;8.26;56.35;100914.28;4973408;28;123754;-77
2022/01/31 02:32:20;;;;;;;11.18;3.03;;;;;;;8.28;56.44;100909.81;4988672;28;123268;-77
2022/01/31 02:34:51;;;;;;;7.95;3.25;;;;;;;8.29;56.34;100914.19;4990390;28;118457;-77
2022/01/31 02:37:19;;;;;;;9.52;2.78;;;;;;;8.30;56.73;100897.44;4990055;28;117950;-77
2022/01/31 02:39:48;;;;;;;10.20;3.03;;;;;;;8.32;56.59;100895.59;4989469;28;123692;-77
2022/01/31 02:42:15;;;;;;;13.50;3.50;;;;;;;8.34;56.88;100893.81;4973449;28;123085;-77
2022/01/31 02:44:44;;;;;;;9.20;3.00;;;;;;;8.37;57.01;100893.69;4989414;28;119672;-77
2022/01/31 02:47:26;;;;;;;9.60;2.78;;;;;;;8.41;56.88;100888.31;4971480;28;119282;-77
2022/01/31 02:49:58;;;;;;;9.00;3.08;;;;;;;8.43;56.70;100883.84;4970494;28;122736;-77
2022/01/31 02:52:31;;;;;;;7.43;2.58;;;;;;;8.46;57.23;100870.56;4986867;28;123831;-77
2022/01/31 02:54:59;;;;;;;7.03;2.88;;;;;;;8.50;57.04;100866.91;4987205;28;119166;-77
2022/01/31 02:57:26;;;;;;;7.90;2.72;;;;;;;8.52;56.91;100851.84;4987130;28;118263;-77
2022/01/31 02:59:53;;;;;;;8.48;3.25;;;;;;;8.55;57.34;100846.44;4987099;28;123009;-77
2022/01/31 03:02:23;;;;;;;7.68;2.85;;;;;;;8.60;57.38;100852.44;4987217;28;122246;-77
2022/01/31 03:04:51;;;;;;;10.23;3.10;;;;;;;8.63;57.69;100836.50;4986529;28;119153;-78
2022/01/31 03:07:18;;;;;;;9.27;2.90;;;;;;;8.68;57.32;100838.94;4977682;28;118829;-77
2022/01/31 03:09:45;;;;;;;11.75;3.00;;;;;;;8.70;57.25;100832.72;5003372;28;124143;-75
2022/01/31 03:12:22;;;;;;;7.43;3.08;;;;;;;8.73;57.64;100822.00;4987178;28;123273;-77
2022/01/31 03:14:57;;;;;;;6.00;2.90;;;;;;;8.77;57.55;100818.31;4971124;28;117741;-77
2022/01/31 03:17:49;;;;;;;6.65;3.08;;;;;;;8.82;57.41;100830.53;4987388;28;118028;-77
2022/01/31 03:20:18;;;;;;;7.22;2.63;;;;;;;8.86;57.68;100811.84;4986408;28;123309;-77
2022/01/31 03:22:47;;;;;;;7.15;2.70;;;;;;;8.90;57.67;100807.31;4986333;28;123523;-77
2022/01/31 03:25:14;;;;;;;5.57;2.55;;;;;;;8.94;57.83;100808.91;4970289;28;118696;-77
2022/01/31 03:27:42;;;;;;;6.93;2.65;;;;;;;8.97;57.94;100814.09;4987315;28;118745;-77
2022/01/31 03:30:13;;;;;;;7.35;2.75;;;;;;;9.01;57.89;100818.31;5002827;28;124501;-77
2022/01/31 03:32:40;;;;;;;5.68;2.67;;;;;;;9.05;58.25;100817.28;4988090;28;123472;-77
2022/01/31 03:35:08;;;;;;;7.95;2.58;;;;;;;9.10;57.95;100803.91;4986276;28;120245;-77
2022/01/31 03:37:36;;;;;;;6.95;2.70;;;;;;;9.14;58.32;100805.50;4986231;28;119320;-77
2022/01/31 03:40:05;;;;;;;9.63;2.67;;;;;;;9.19;58.32;100787.66;4969656;28;123858;-77
2022/01/31 03:42:34;;;;;;;5.55;2.50;;;;;;;9.23;58.09;100777.81;4986386;28;123380;-77
2022/01/31 03:45:01;;;;;;;9.48;2.75;;;;;;;9.27;58.19;100774.16;4986692;28;119304;-77
2022/01/31 03:47:29;;;;;;;8.82;2.35;;;;;;;9.31;58.50;100781.03;4986698;28;118871;-77
2022/01/31 03:49:56;;;;;;;10.60;2.75;;;;;;;9.35;58.37;100766.75;4986218;28;123615;-77
2022/01/31 03:52:25;;;;;;;8.55;2.78;;;;;;;9.38;58.07;100771.06;4969855;28;124319;-77
2022/01/31 03:54:55;;;;;;;10.60;2.30;;;;;;;9.43;58.40;100769.94;4986533;28;118714;-78
2022/01/31 03:57:22;;;;;;;9.85;2.20;;;;;;;9.47;58.41;100782.09;4986463;28;118626;-77
2022/01/31 04:00:10;;;;;;;11.90;2.60;;;;;;;9.51;58.29;100773.16;4986162;28;124161;-77
2022/01/31 04:02:42;;;;;;;9.67;2.00;;;;;;;9.54;58.68;100773.00;4986215;28;123358;-75
2022/01/31 04:05:10;;;;;;;10.05;2.28;;;;;;;9.60;58.30;100765.75;4985065;28;119975;-77
2022/01/31 04:07:37;;;;;;;9.23;2.22;;;;;;;9.62;58.55;100753.31;4987899;28;119359;-77
2022/01/31 04:10:05;;;;;;;9.02;2.30;;;;;;;9.65;58.68;100761.13;4986045;28;123703;-77
2022/01/31 04:12:32;;;;;;;6.57;2.00;;;;;;;9.68;58.51;100763.63;5002737;28;124361;-78
2022/01/31 04:14:59;;;;;;;6.78;2.40;;;;;;;9.72;58.32;100759.94;4986765;28;119625;-77
2022/01/31 04:17:27;;;;;;;11.05;2.10;;;;;;;9.76;58.25;100753.59;4987588;28;96987;-77
2022/01/31 04:19:54;;;;;;;11.88;2.70;;;;;;;9.78;58.65;100754.38;4985034;28;125058;-77
2022/01/31 04:22:24;;;;;;;6.22;1.70;;;;;;;9.82;58.39;100758.59;4985994;28;123766;-77
2022/01/31 04:24:55;;;;;;;9.27;1.60;;;;;;;9.84;58.12;100764.69;4985510;28;120085;-76
2022/01/31 04:27:27;;;;;;;7.90;1.40;;;;;;;9.85;58.12;100753.19;4987409;28;119794;-77
2022/01/31 04:29:54;;;;;;;6.15;1.45;;;;;;;9.87;58.16;100753.97;4984846;28;123914;-78
2022/01/31 04:32:21;;;;;;;5.50;1.60;;;;;;;9.91;58.16;100750.28;4986049;28;122750;-76
2022/01/31 04:34:48;;;;;;;7.53;1.70;;;;;;;9.94;57.84;100750.16;4986107;28;119345;-77
2022/01/31 04:37:15;;;;;;;6.88;1.52;;;;;;;9.98;58.09;100750.00;4987098;28;118864;-77
2022/01/31 04:39:42;;;;;;;8.38;1.60;;;;;;;10.00;57.79;100742.84;4985939;28;123953;-77
2022/01/31 04:42:09;;;;;;;9.00;1.73;;;;;;;10.02;57.67;100741.00;4987434;28;123670;-76
2022/01/31 04:44:36;;;;;;;9.25;1.70;;;;;;;10.04;58.01;100740.00;4987418;28;118986;-76
2022/01/31 04:47:04;;;;;;;9.00;1.70;;;;;;;10.07;57.75;100739.00;4986641;28;118564;-77
2022/01/31 04:49:33;;;;;;;11.88;1.60;;;;;;;10.09;57.68;100742.44;4986517;28;123722;-77
2022/01/31 04:52:01;;;;;;;9.00;1.30;;;;;;;10.10;57.67;100744.16;4985778;28;124613;-77
2022/01/31 04:54:28;;;;;;;5.43;1.50;;;;;;;10.10;57.10;100744.16;4985731;28;119162;-77
2022/01/31 04:56:55;;;;;;;8.85;1.70;;;;;;;10.11;57.39;100730.00;4985236;28;118958;-77
2022/01/31 04:59:22;;;;;;;7.60;1.30;;;;;;;10.11;57.21;100733.53;4985825;28;124049;-75
2022/01/31 05:01:50;;;;;;;6.50;1.35;;;;;;;10.13;57.00;100738.72;4986535;28;123623;-78
2022/01/31 05:04:17;;;;;;;8.27;1.80;;;;;;;10.12;57.37;100731.72;4986088;28;119497;-77
2022/01/31 05:06:46;;;;;;;7.65;1.33;;;;;;;10.12;57.23;100721.16;4985928;28;118302;-77
2022/01/31 05:09:13;;;;;;;8.85;1.67;;;;;;;10.14;56.87;100724.56;4985807;28;124594;-77
2022/01/31 05:11:40;;;;;;;7.63;1.10;;;;;;;10.14;56.86;100724.56;4985233;28;123798;-76
2022/01/31 05:14:07;;;;;;;7.30;1.48;;;;;;;10.14;56.67;100714.84;4985447;28;120853;-77
2022/01/31 05:16:34;;;;;;;7.40;1.27;;;;;;;10.15;56.93;100723.63;4986095;28;119592;-77
2022/01/31 05:19:02;;;;;;;6.50;1.25;;;;;;;10.17;56.65;100697.97;4996174;28;124642;-77
2022/01/31 05:21:30;;;;;;;7.43;1.17;;;;;;;10.17;56.43;100703.28;4997042;28;124190;-77
2022/01/31 05:23:57;;;;;;;7.25;1.25;;;;;;;10.17;56.46;100691.81;4998485;28;118614;-77
2022/01/31 05:26:24;;;;;;;9.10;1.45;;;;;;;10.18;56.27;100691.75;4997453;28;119494;-77
2022/01/31 05:28:52;;;;;;;10.63;1.48;;;;;;;10.18;56.25;100683.81;4995154;28;124193;-77
2022/01/31 05:31:19;;;;;;;6.05;1.42;;;;;;;10.19;56.32;100680.25;4997934;28;124162;-77
2022/01/31 05:33:46;;;;;;;10.50;1.52;;;;;;;10.20;56.25;100681.94;5000806;28;119038;-77
2022/01/31 05:36:13;;;;;;;3.50;1.00;;;;;;;10.20;55.93;100670.50;5003879;28;119186;-76
2022/01/31 05:38:41;;;;;;;7.82;1.38;;;;;;;10.20;56.09;100687.25;4999099;28;123838;-77
2022/01/31 05:41:11;;;;;;;6.43;1.30;;;;;;;10.20;55.92;100666.06;4995268;28;124341;-77
2022/01/31 05:43:38;;;;;;;7.88;1.50;;;;;;;10.17;56.18;100660.94;4991772;28;119088;-77
2022/01/31 05:46:05;;;;;;;8.45;1.25;;;;;;;10.17;55.98;100654.75;4993107;28;118641;-77
2022/01/31 05:48:33;;;;;;;9.02;1.92;;;;;;;10.13;56.06;100659.34;4990116;28;123519;-77
2022/01/31 05:51:02;;;;;;;5.88;1.20;;;;;;;10.11;55.78;100655.91;4990192;28;123812;-77
2022/01/31 05:53:30;;;;;;;10.82;1.58;;;;;;;10.08;56.04;100661.34;4989587;28;118207;-76
2022/01/31 05:55:58;;;;;;;6.63;1.00;;;;;;;10.06;55.92;100726.72;4989966;28;119530;-76
2022/01/31 05:58:25;;;;;;;5.25;0.77;;;;;;;9.99;55.62;100709.41;4988327;28;123735;-75
2022/01/31 06:00:52;;;;;;;4.80;0.90;;;;;;;9.82;55.55;100732.16;4989207;28;123490;-77
2022/01/31 06:03:20;;;;;;;4.38;0.93;;;;;;;9.62;55.54;100727.72;4992875;28;120973;-77
2022/01/31 06:05:47;;;;;;;3.22;0.80;;;;;;;9.47;55.52;100708.06;4977559;28;118270;-77
2022/01/31 06:08:14;;;;;;;3.17;0.80;;;;;;;9.34;55.50;100701.59;4993958;28;124137;-77
2022/01/31 06:10:44;;;;;;;3.30;0.70;;;;;;;9.23;55.89;100703.81;4993228;28;121606;-76
2022/01/31 06:13:11;;;;;;;3.58;0.90;;;;;;;9.13;55.84;100704.22;4991425;28;118822;-75
2022/01/31 06:15:38;;;;;;;5.63;0.98;;;;;;;9.05;56.02;100690.47;4972576;28;118312;-76
2022/01/31 06:18:06;;;;;;;4.88;1.08;;;;;;;8.99;56.36;100680.16;4972010;28;124089;-76
2022/01/31 06:20:33;;;;;;;9.65;1.10;;;;;;;8.93;56.04;100675.13;4988581;28;122399;-76
2022/01/31 06:23:00;;;;;;;5.38;1.10;;;;;;;8.89;56.63;100668.22;4989492;28;119359;-76
2022/01/31 06:25:27;;;;;;;4.70;1.02;;;;;;;8.87;56.67;100664.81;4988462;28;119041;-76
2022/01/31 06:27:54;;;;;;;5.93;1.48;;;;;;;8.84;56.84;100664.94;4987060;28;124026;-76
2022/01/31 06:30:25;;;;;;;6.88;1.20;;;;;;;8.83;56.73;100657.94;4987473;28;123941;-76
2022/01/31 06:32:53;;;;;;;6.00;0.93;;;;;;;8.81;56.82;100662.41;4987248;28;117763;-76
2022/01/31 06:35:21;;;;;;;7.57;1.40;;;;;;;8.81;57.11;100659.78;4989025;28;118483;-76
2022/01/31 06:37:48;;;;;;;6.88;1.20;;;;;;;8.81;56.96;100659.78;4987470;28;122964;-76
2022/01/31 06:40:15;;;;;;;8.02;1.45;;;;;;;8.81;57.36;100659.78;5004084;28;123970;-76
2022/01/31 06:42:42;;;;;;;11.80;1.20;;;;;;;8.81;57.38;100659.78;4986885;28;118406;-75
2022/01/31 06:45:10;;;;;;;6.63;1.38;;;;;;;8.83;57.55;100652.66;4989492;28;118790;-76
2022/01/31 06:47:37;;;;;;;7.13;1.55;;;;;;;8.84;57.64;100659.66;4987342;28;123697;-77
2022/01/31 06:50:06;;;;;;;9.98;1.88;;;;;;;8.86;57.64;100663.09;4987233;28;123793;-76
2022/01/31 06:52:37;;;;;;;5.70;1.33;;;;;;;8.88;57.82;100658.63;4986749;28;119670;-77
2022/01/31 06:55:07;;;;;;;8.73;1.65;;;;;;;8.89;57.39;100668.22;4987409;28;119742;-76
2022/01/31 06:57:35;;;;;;;8.38;1.17;;;;;;;8.90;57.69;100677.91;4988006;28;123858;-77
2022/01/31 07:00:07;;;;;;;8.55;1.52;;;;;;;8.93;57.77;100680.41;4988278;28;123163;-77
2022/01/31 07:02:35;;;;;;;8.25;1.60;;;;;;;8.93;57.84;100691.84;4988874;28;118842;-76
2022/01/31 07:05:02;;;;;;;7.82;2.10;;;;;;;8.95;57.66;100689.13;4988117;28;118009;-77
2022/01/31 07:07:30;;;;;;;9.88;1.50;;;;;;;8.95;57.77;100683.84;4987451;28;124709;-77
2022/01/31 07:10:00;;;;;;;8.70;1.90;;;;;;;8.95;57.63;100699.72;5004603;28;123150;-77
2022/01/31 07:12:37;;;;;;;11.13;1.45;;;;;;;8.96;57.83;100696.13;5003657;28;118751;-77
2022/01/31 07:15:07;;;;;;;8.68;1.83;;;;;;;8.95;57.66;100678.56;4987438;28;118651;-78
2022/01/31 07:17:39;;;;;;;14.65;1.88;;;;;;;8.94;57.74;100692.69;4987128;28;123444;-77
2022/01/31 07:20:12;;;;;;;6.10;1.50;;;;;;;8.94;57.88;100682.13;4986162;28;123185;-77
2022/01/31 07:22:40;;;;;;;14.00;2.00;;;;;;;8.93;57.88;100669.84;4986926;28;119085;-76
2022/01/31 07:25:20;;;;;;;13.30;2.20;;;;;;;8.93;57.87;100683.06;4987147;28;119329;-77
2022/01/31 07:27:47;;;;;;;9.52;1.67;;;;;;;8.92;57.60;100683.97;4986466;28;123870;-78
2022/01/31 07:30:14;;;;;;;8.05;1.70;;;;;;;8.93;58.09;100701.56;4987784;28;123616;-78
2022/01/31 07:32:41;;;;;;;10.65;2.30;;;;;;;8.93;57.92;100706.84;4986200;28;118351;-77
2022/01/31 07:35:09;;;;;;;7.70;1.67;;;;;;;8.90;57.82;100683.19;4986460;28;117973;-78
2022/01/31 07:37:37;;;;;;;11.52;2.03;;;;;;;8.90;58.15;100667.31;4984045;28;124483;-77
2022/01/31 07:40:05;;;;;;;8.13;1.60;;;;;;;8.89;57.76;100668.22;4984017;28;125144;-78
2022/01/31 07:42:32;;;;;;;6.68;1.50;;;;;;;8.88;58.12;100680.59;4985573;28;119940;-78
2022/01/31 07:45:01;;;;;;;8.73;1.73;;;;;;;8.87;57.84;100675.38;4985421;28;120280;-78
2022/01/31 07:47:38;;;;;;;11.57;1.58;;;;;;;8.87;57.63;100659.53;4971473;28;123664;-77
2022/01/31 07:50:06;;;;;;;10.63;1.50;;;;;;;8.86;58.09;100657.81;4986264;28;123065;-77
2022/01/31 07:52:34;;;;;;;6.72;1.20;;;;;;;8.83;58.24;100671.13;5003468;28;118890;-77
2022/01/31 07:55:02;;;;;;;6.55;1.45;;;;;;;8.84;58.03;100659.66;4986800;28;117471;-77
2022/01/31 07:57:29;;;;;;;9.05;1.65;;;;;;;8.83;58.07;100663.22;4986260;28;123746;-78
2022/01/31 08:00:03;;;;;;;10.02;1.30;;;;;;;8.81;58.05;100663.28;4986762;28;123896;-77
2022/01/31 08:02:39;;;;;;;9.18;1.50;;;;;;;8.82;58.03;100666.78;4986909;28;120022;-76
2022/01/31 08:05:07;;;;;;;9.68;1.58;;;;;;;8.81;58.27;100688.81;4986657;28;118105;-78
2022/01/31 08:07:35;;;;;;;10.90;1.60;;;;;;;8.80;58.35;100685.34;4985922;28;124213;-77
2022/01/31 08:10:06;;;;;;;10.98;2.03;;;;;;;8.80;58.36;100673.88;4986656;28;122353;-77
2022/01/31 08:12:36;;;;;;;6.18;1.23;;;;;;;8.80;58.24;100684.44;4986079;28;118261;-78
2022/01/31 08:15:07;;;;;;;7.00;1.77;;;;;;;8.79;58.29;100680.09;4969864;28;118260;-79
2022/01/31 08:17:35;;;;;;;7.90;1.38;;;;;;;8.78;58.33;100676.63;4986559;28;124097;-76
2022/01/31 08:20:03;;;;;;;8.57;1.75;;;;;;;8.77;58.65;100675.72;4969864;28;122801;-77
2022/01/31 08:22:30;;;;;;;7.70;2.13;;;;;;;8.79;58.38;100667.75;4987734;28;119070;-78
2022/01/31 08:24:57;;;;;;;8.23;1.70;;;;;;;8.79;58.37;100709.16;4987033;28;117859;-77
2022/01/31 08:27:24;;;;;;;17.25;2.05;;;;;;;8.81;58.46;100680.91;4985534;28;123284;-78
2022/01/31 08:29:59;;;;;;;11.85;2.03;;;;;;;8.82;58.37;100687.91;4985795;28;124217;-78
2022/01/31 08:32:34;;;;;;;11.30;2.00;;;;;;;8.83;58.46;100664.06;4986252;28;119670;-78
2022/01/31 08:37:47;;;;;;;;;;;;;;;8.83;58.49;100677.25;4986070;28;122650;-77
2022/01/31 08:40:14;;;;;;;12.13;2.00;;;;;;;8.84;58.86;100667.59;4985901;28;124489;-76
2022/01/31 08:42:45;;;;;;;11.35;1.73;;;;;;;8.85;58.35;100671.94;5002748;28;117526;-76
2022/01/31 08:45:12;;;;;;;8.88;1.70;;;;;;;8.86;58.31;100652.53;4985925;28;119049;-78
2022/01/31 08:47:41;;;;;;;13.07;2.08;;;;;;;8.87;58.32;100667.44;4969437;28;123020;-78
2022/01/31 08:50:09;;;;;;;17.88;2.42;;;;;;;8.89;58.56;100662.94;4987134;28;123998;-77
2022/01/31 08:52:40;;;;;;;8.77;1.77;;;;;;;8.91;58.68;100662.00;4992082;28;119306;-77
2022/01/31 08:55:09;;;;;;;11.55;1.77;;;;;;;8.94;58.83;100671.56;4986042;28;119356;-77
2022/01/31 08:57:36;;;;;;;12.02;1.75;;;;;;;8.94;58.78;100680.34;4985091;28;123754;-77
2022/01/31 09:00:06;;;;;;;12.02;1.77;;;;;;;8.96;58.75;100685.56;4985374;28;122804;-78
2022/01/31 09:02:39;;;;;;;10.82;1.70;;;;;;;8.98;58.90;100667.84;4985895;28;119973;-77
2022/01/31 09:05:08;;;;;;;16.17;2.05;;;;;;;8.99;58.89;100685.44;4987026;28;116911;-78
2022/01/31 09:07:35;;;;;;;9.93;1.90;;;;;;;9.00;58.81;100660.72;4987624;28;123898;-78
2022/01/31 09:10:03;;;;;;;10.60;1.70;;;;;;;9.02;58.72;100669.44;4988766;28;122559;-78
2022/01/31 09:12:33;;;;;;;13.75;1.80;;;;;;;9.03;58.89;100663.25;4989216;28;118499;-77
2022/01/31 09:15:00;;;;;;;14.82;2.13;;;;;;;9.05;58.90;100663.19;4973051;28;118068;-77
2022/01/31 09:17:27;;;;;;;11.63;2.30;;;;;;;9.05;58.59;100658.75;4988242;28;123531;-78
2022/01/31 09:19:54;;;;;;;14.65;2.30;;;;;;;9.07;58.53;100649.00;4989032;28;123611;-78
2022/01/31 09:22:21;;;;;;;10.60;1.70;;;;;;;9.09;58.96;100678.84;4990197;28;119543;-78
2022/01/31 09:24:50;;;;;;;10.57;2.20;;;;;;;9.10;58.85;100677.94;4990898;28;120056;-78
2022/01/31 09:27:17;;;;;;;12.90;2.47;;;;;;;9.11;58.60;100687.56;4995073;28;124411;-78
2022/01/31 09:29:45;;;;;;;9.43;2.00;;;;;;;9.10;58.71;100677.94;4979470;28;122810;-78
2022/01/31 09:32:13;;;;;;;14.68;2.35;;;;;;;9.13;58.66;100667.22;4994871;28;118469;-77
2022/01/31 09:34:41;;;;;;;11.23;1.75;;;;;;;9.13;58.71;100671.66;4992225;28;117189;-78
2022/01/31 09:37:08;;;;;;;9.85;1.73;;;;;;;9.13;58.62;100688.34;4972364;28;124564;-78
2022/01/31 09:39:36;;;;;;;11.23;1.73;;;;;;;9.12;58.49;100670.81;4972878;28;123192;-78
2022/01/31 09:42:08;;;;;;;16.60;2.20;;;;;;;9.13;58.58;100704.22;4988836;28;119035;-78
2022/01/31 09:44:44;;;;;;;10.93;2.00;;;;;;;9.13;58.77;100709.50;4988757;28;117342;-77
2022/01/31 09:48:31;;;;;;;10.45;2.25;;;;;;;9.13;58.61;100704.22;4971404;28;123473;-78
2022/01/31 09:50:12;;;;;;;8.60;1.67;;;;;;;9.12;58.80;100701.66;4987459;28;123069;-77
2022/01/31 09:52:40;;;;;;;13.23;2.58;;;;;;;9.10;58.85;100709.63;4988248;28;118778;-77
2022/01/31 09:55:07;;;;;;;10.00;1.90;;;;;;;9.10;58.54;100722.84;4989678;28;118854;-76
2022/01/31 09:57:35;;;;;;;16.00;2.17;;;;;;;9.10;58.52;100719.34;4988035;28;124538;-78
2022/01/31 10:00:04;;;;;;;11.18;2.00;;;;;;;9.11;58.57;100718.41;4988255;28;123982;-79
2022/01/31 10:02:40;;;;;;;15.07;2.10;;;;;;;9.12;58.59;100744.78;4989959;28;119760;-76
2022/01/31 10:05:10;;;;;;;16.73;2.80;;;;;;;9.13;58.78;100746.47;4988469;28;119084;-77
2022/01/31 10:07:47;;;;;;;14.35;2.25;;;;;;;9.14;58.99;100732.38;4987589;28;124976;-78
2022/01/31 10:10:21;;;;;;;17.83;2.88;;;;;;;9.15;59.03;100739.38;4987936;28;123192;-77
2022/01/31 10:18:10;;;;;;;17.80;2.63;;;;;;;9.16;58.64;100772.78;4986492;28;123131;-78
2022/01/31 10:20:58;;;;;;;14.35;2.35;;;;;;;9.15;58.91;100784.31;4987784;28;124534;-78
2022/01/31 10:23:39;;;;;;;21.25;2.80;;;;;;;9.15;58.26;100786.94;4987608;28;117644;-77
2022/01/31 10:26:26;;;;;;;13.63;2.72;;;;;;;9.13;58.60;100788.75;4989084;28;118973;-77
2022/01/31 10:29:09;;;;;;;15.40;2.75;;;;;;;9.12;58.79;100802.91;4987303;28;123580;-77
2022/01/31 10:31:36;;;;;;;15.05;2.90;;;;;;;9.12;58.68;100797.63;4971434;28;122669;-77
2022/01/31 10:34:14;;;;;;;21.92;3.15;;;;;;;9.14;58.63;100806.34;4987822;28;118245;-78
2022/01/31 10:36:42;;;;;;;17.15;2.85;;;;;;;9.16;58.58;100808.94;4987821;28;119460;-78
2022/01/31 10:39:15;;;;;;;19.25;3.22;;;;;;;9.18;58.97;100812.38;4988323;28;124259;-78
2022/01/31 10:44:59;;;;;;;21.13;3.47;;;;;;;9.20;58.84;100799.09;4987897;28;118574;-77
2022/01/31 10:53:10;;;;;;;23.80;3.28;;;;;;;9.20;58.41;100825.53;4987350;28;124540;-77
2022/01/31 10:55:37;;;;;;;21.10;3.60;;;;;;;9.19;58.83;100818.50;4988976;28;118792;-78
2022/01/31 10:58:08;;;;;;;27.08;3.50;;;;;;;9.16;58.69;100825.63;4988117;28;118031;-76
2022/01/31 11:00:40;;;;;;;15.55;3.05;;;;;;;9.19;58.78;100807.94;4988526;28;123886;-78
2022/01/31 11:03:31;;;;;;;19.75;3.20;;;;;;;9.20;58.62;100836.09;4987132;28;123514;-78
2022/01/31 11:06:08;;;;;;;19.17;3.33;;;;;;;9.20;59.03;100826.38;4985133;28;120358;-77
2022/01/31 11:08:35;;;;;;;22.25;3.20;;;;;;;9.22;58.53;100818.41;4986496;28;119660;-78
2022/01/31 11:11:03;;;;;;;25.77;3.42;;;;;;;9.24;58.91;100837.69;4988484;28;124073;-77
2022/01/31 11:13:37;;;;;;;16.35;3.88;;;;;;;9.23;58.83;100820.09;4987010;28;122741;-78
2022/01/31 11:16:06;;;;;;;17.63;3.15;;;;;;;9.25;58.80;100855.25;4987112;28;119145;-77
2022/01/31 11:18:35;;;;;;;18.15;3.10;;;;;;;9.26;58.43;100846.41;4987017;28;119745;-77
2022/01/31 11:21:07;;;;;;;15.82;2.85;;;;;;;9.27;58.64;100866.66;4969694;28;123755;-77
2022/01/31 11:23:40;;;;;;;18.92;2.78;;;;;;;9.28;58.61;100865.72;4987074;28;123192;-78
2022/01/31 11:26:09;;;;;;;17.98;2.95;;;;;;;9.28;58.48;100858.63;4987013;28;118438;-77
2022/01/31 11:28:40;;;;;;;15.20;2.70;;;;;;;9.27;58.66;100869.28;4969857;28;118307;-76
2022/01/31 11:31:07;;;;;;;13.82;3.05;;;;;;;9.26;58.60;100878.13;4985690;28;123517;-77
2022/01/31 11:33:35;;;;;;;15.35;2.35;;;;;;;9.24;58.66;100858.84;4988119;28;124294;-77
2022/01/31 11:36:03;;;;;;;13.57;2.30;;;;;;;9.23;58.67;100887.06;4986874;28;119642;-77
2022/01/31 11:38:32;;;;;;;16.92;2.70;;;;;;;9.20;58.62;100879.22;4986522;28;117953;-77
2022/01/31 11:41:02;;;;;;;16.95;2.88;;;;;;;9.19;59.05;100877.50;4987615;28;124322;-77
2022/01/31 11:43:31;;;;;;;13.02;2.28;;;;;;;9.16;58.77;100873.19;4986660;28;123653;-77
2022/01/31 11:46:00;;;;;;;18.50;2.92;;;;;;;9.15;58.53;100870.59;4987912;28;119601;-76
2022/01/31 11:48:29;;;;;;;16.90;2.80;;;;;;;9.13;58.71;100888.31;4970468;28;117827;-77
2022/01/31 11:50:59;;;;;;;17.67;2.60;;;;;;;9.12;58.67;100898.03;4986093;28;124344;-77